Time;durP1;ratioP1;P1;durP2;ratioP2;P2;SDS_P1;SDS_P2;PMS_P1;PMS_P2;Temp;Humidity;BMP_temperature;BMP_pressure;BME280_temperature;BME280_humidity;BME280_pressure;Samples;Min_cycle;Max_cycle;Signal;HPM_P1;HPM_P2
2022/07/23 00:00:32;;;;;;;9.57;5.68;;;;;;;19.55;89.03;97588.34;5047676;28;20139;-77
2022/07/23 00:03:01;;;;;;;13.18;5.65;;;;;;;19.46;89.53;97575.69;5063341;28;20039;-76
2022/07/23 00:05:59;;;;;;;8.15;5.65;;;;;;;19.36;90.76;97580.25;5052877;28;20412;-77
2022/07/23 00:08:28;;;;;;;10.68;6.68;;;;;;;19.28;90.24;97569.31;5060304;28;20055;-77
2022/07/23 00:10:54;;;;;;;12.50;6.45;;;;;;;19.22;90.67;97568.03;5037057;28;20068;-77
2022/07/23 00:13:40;;;;;;;11.85;6.57;;;;;;;18.86;91.79;97514.63;5058652;28;20027;-76
2022/07/23 00:16:26;;;;;;;9.13;6.28;;;;;;;18.87;92.55;97519.91;5052915;28;20039;-75
2022/07/23 00:18:55;;;;;;;14.88;6.53;;;;;;;19.00;92.94;97538.56;5036844;28;20512;-77
2022/07/23 00:21:50;;;;;;;11.82;6.72;;;;;;;19.05;92.46;97528.13;5061039;28;20025;-77
2022/07/23 00:24:16;;;;;;;14.55;6.50;;;;;;;19.18;93.27;97568.47;5057389;28;20041;-76
2022/07/23 00:26:42;;;;;;;14.52;6.18;;;;;;;19.35;93.22;97571.25;5052069;28;20581;-77
2022/07/23 00:29:07;;;;;;;9.23;6.13;;;;;;;19.28;94.64;97580.16;5050884;28;20032;-76
2022/07/23 00:31:33;;;;;;;13.52;6.70;;;;;;;19.22;96.08;97575.31;5067592;28;20017;-76
2022/07/23 00:34:00;;;;;;;11.88;6.95;;;;;;;19.23;97.27;97587.84;5052673;28;20385;-77
2022/07/23 00:36:27;;;;;;;12.65;6.78;;;;;;;19.14;96.40;97575.19;5054702;28;20039;-77
2022/07/23 00:38:53;;;;;;;14.68;6.82;;;;;;;19.04;97.44;97571.66;5055879;28;20032;-75
2022/07/23 00:41:19;;;;;;;17.83;7.10;;;;;;;19.07;97.69;97571.38;5070807;28;20116;-75
2022/07/23 00:43:44;;;;;;;12.52;6.50;;;;;;;19.00;97.71;97565.69;5055598;28;20025;-76
2022/07/23 00:46:10;;;;;;;9.52;6.22;;;;;;;18.98;97.17;97564.94;5053748;28;20039;-75
2022/07/23 00:48:35;;;;;;;17.73;6.80;;;;;;;18.97;97.07;97559.69;5056190;28;20028;-76
2022/07/23 00:51:01;;;;;;;12.07;6.32;;;;;;;19.00;96.13;97559.41;5056276;28;20032;-75
2022/07/23 00:53:27;;;;;;;11.00;6.47;;;;;;;18.93;96.84;97564.53;5062815;28;20387;-77
2022/07/23 00:55:53;;;;;;;12.18;6.53;;;;;;;18.86;97.18;97556.13;5046920;28;20025;-77
2022/07/23 00:58:19;;;;;;;13.48;7.03;;;;;;;18.87;97.60;97559.69;5065738;28;20028;-77
2022/07/23 01:00:45;;;;;;;12.15;6.28;;;;;;;18.71;98.60;97554.88;5053501;28;20437;-76
2022/07/23 01:03:10;;;;;;;11.73;6.50;;;;;;;18.73;99.24;97557.47;5042132;28;20031;-77
2022/07/23 01:05:36;;;;;;;12.15;7.00;;;;;;;18.62;99.58;97539.50;5070855;28;20075;-76
2022/07/23 01:08:02;;;;;;;10.27;6.15;;;;;;;18.79;99.54;97568.59;5056230;28;20452;-77
2022/07/23 01:10:30;;;;;;;13.32;6.53;;;;;;;18.79;99.63;97556.88;5056057;28;20036;-76
2022/07/23 01:13:00;;;;;;;13.20;5.90;;;;;;;18.88;99.15;97562.28;5043953;28;20020;-76
2022/07/23 01:15:26;;;;;;;8.77;6.32;;;;;;;18.84;99.68;97563.56;5045062;28;20119;-76
2022/07/23 01:17:52;;;;;;;9.52;6.55;;;;;;;18.72;99.79;97556.59;5065886;28;20480;-76
2022/07/23 01:20:18;;;;;;;14.55;6.95;;;;;;;18.77;99.79;97567.00;5047884;28;20044;-76
2022/07/23 01:22:44;;;;;;;10.77;6.50;;;;;;;18.69;99.73;97561.44;5039146;28;20607;-76
2022/07/23 01:25:10;;;;;;;14.55;6.35;;;;;;;18.70;99.08;97564.00;5052125;28;20108;-75
2022/07/23 01:27:35;;;;;;;8.82;6.57;;;;;;;18.64;99.74;97575.41;5052701;28;20424;-76
2022/07/23 01:30:03;;;;;;;8.00;6.13;;;;;;;18.60;99.49;97568.59;5046012;28;20496;-76
2022/07/23 01:32:28;;;;;;;10.82;6.53;;;;;;;18.61;99.90;97570.28;5064932;28;20127;-76
2022/07/23 01:34:54;;;;;;;11.65;6.35;;;;;;;18.55;100.00;97576.28;5055401;28;20226;-77
2022/07/23 01:37:20;;;;;;;12.23;6.70;;;;;;;18.49;100.00;97565.16;5061581;28;20031;-77
2022/07/23 01:39:45;;;;;;;10.68;6.15;;;;;;;18.39;100.00;97559.75;5062450;28;20037;-76
2022/07/23 01:42:11;;;;;;;10.55;6.45;;;;;;;18.42;100.00;97556.75;5054260;28;20127;-76
2022/07/23 01:44:36;;;;;;;9.30;5.78;;;;;;;18.36;100.00;97558.16;5070976;28;20016;-76
2022/07/23 01:47:02;;;;;;;7.35;5.78;;;;;;;18.32;100.00;97547.75;5071245;28;20097;-76
2022/07/23 01:49:28;;;;;;;13.82;6.85;;;;;;;18.29;100.00;97554.31;5042075;28;20021;-76
2022/07/23 01:51:59;;;;;;;16.88;6.22;;;;;;;18.29;100.00;97553.47;5069012;28;20491;-76
2022/07/23 01:54:29;;;;;;;13.13;6.70;;;;;;;18.39;100.00;97554.31;5056139;28;20035;-76
2022/07/23 01:56:55;;;;;;;13.25;6.35;;;;;;;18.39;100.00;97557.03;5051936;28;20028;-76
2022/07/23 01:59:21;;;;;;;19.27;7.05;;;;;;;18.33;100.00;97555.72;5053732;28;20025;-76
2022/07/23 02:01:48;;;;;;;13.70;6.50;;;;;;;18.24;100.00;97553.03;5050460;28;20484;-77
2022/07/23 02:04:14;;;;;;;10.88;6.80;;;;;;;18.22;100.00;97547.75;5053817;28;20027;-77
2022/07/23 02:06:39;;;;;;;10.63;6.47;;;;;;;18.24;100.00;97553.03;5068440;28;20028;-77
2022/07/23 02:09:05;;;;;;;12.10;6.53;;;;;;;18.23;100.00;97556.75;5071759;28;20020;-77
2022/07/23 02:11:30;;;;;;;11.15;6.70;;;;;;;18.18;100.00;97550.91;5040505;28;20029;-77
2022/07/23 02:13:56;;;;;;;16.20;6.60;;;;;;;18.16;100.00;97537.50;5054415;28;20522;-77
2022/07/23 02:16:21;;;;;;;11.73;6.35;;;;;;;18.13;100.00;97547.75;5055313;28;20024;-77
2022/07/23 02:18:47;;;;;;;16.08;7.50;;;;;;;18.05;100.00;97551.19;5071298;28;20458;-76
2022/07/23 02:21:13;;;;;;;11.00;7.50;;;;;;;17.99;100.00;97553.59;5051094;28;20047;-76
2022/07/23 02:23:38;;;;;;;12.52;6.85;;;;;;;17.94;100.00;97547.72;5041706;28;20399;-77
2022/07/23 02:26:04;;;;;;;13.05;7.15;;;;;;;17.79;100.00;97545.44;5071592;28;20109;-77
2022/07/23 02:28:29;;;;;;;12.73;7.28;;;;;;;17.85;100.00;97550.28;5049110;28;20025;-77
2022/07/23 02:30:55;;;;;;;10.80;6.55;;;;;;;17.73;100.00;97540.59;5051010;28;20462;-77
2022/07/23 02:33:21;;;;;;;12.23;7.20;;;;;;;17.78;100.00;97553.72;5057438;28;20025;-76
2022/07/23 02:35:46;;;;;;;11.10;7.25;;;;;;;17.79;100.00;97566.22;5059272;28;20029;-77
2022/07/23 02:38:12;;;;;;;10.65;6.97;;;;;;;17.81;100.00;97559.66;5054475;28;20107;-77
2022/07/23 02:40:37;;;;;;;12.18;6.80;;;;;;;17.72;100.00;97552.38;5054629;28;20523;-77
2022/07/23 02:43:03;;;;;;;9.38;6.90;;;;;;;17.73;100.00;97562.22;5054497;28;20064;-77
2022/07/23 02:45:29;;;;;;;16.85;7.03;;;;;;;17.69;100.00;97563.50;5051293;28;20021;-77
2022/07/23 02:47:54;;;;;;;12.13;7.03;;;;;;;17.69;100.00;97566.19;5070004;28;20138;-77
2022/07/23 02:50:20;;;;;;;13.05;6.50;;;;;;;17.65;100.00;97562.06;5044850;28;20024;-76
2022/07/23 02:52:45;;;;;;;11.82;7.18;;;;;;;17.70;100.00;97567.91;5037573;28;20043;-77
2022/07/23 02:55:11;;;;;;;10.13;6.72;;;;;;;17.68;100.00;97574.47;5052976;28;20033;-77
2022/07/23 02:57:37;;;;;;;12.98;6.93;;;;;;;17.63;100.00;97571.31;5039015;28;20480;-77
2022/07/23 03:00:05;;;;;;;12.02;7.20;;;;;;;17.65;100.00;97575.59;5052418;28;20500;-77
2022/07/23 03:02:31;;;;;;;10.55;7.15;;;;;;;17.73;100.00;97574.91;5054131;28;20032;-76
2022/07/23 03:04:56;;;;;;;10.02;7.10;;;;;;;17.73;100.00;97583.88;5053557;28;20557;-76
2022/07/23 03:07:22;;;;;;;12.18;7.43;;;;;;;17.75;100.00;97572.91;5053973;28;20499;-76
2022/07/23 03:09:47;;;;;;;12.27;7.53;;;;;;;17.90;100.00;97585.06;5070423;28;20032;-76
2022/07/23 03:12:13;;;;;;;17.40;8.77;;;;;;;17.88;100.00;97582.47;5046814;28;20024;-76
2022/07/23 03:14:39;;;;;;;20.58;8.60;;;;;;;17.87;100.00;97580.75;5053665;28;20031;-76
2022/07/23 03:17:04;;;;;;;18.70;8.80;;;;;;;17.87;100.00;97578.06;5053350;28;20037;-76
2022/07/23 03:19:30;;;;;;;17.45;8.90;;;;;;;17.86;100.00;97597.16;5045285;28;20082;-76
2022/07/23 03:21:55;;;;;;;17.42;8.55;;;;;;;17.83;100.00;97589.31;5070673;28;20123;-76
2022/07/23 03:24:23;;;;;;;23.17;9.43;;;;;;;17.83;100.00;97595.59;5046686;28;20463;-75
2022/07/23 03:26:49;;;;;;;16.58;8.75;;;;;;;17.91;100.00;97596.72;5053933;28;20028;-75
2022/07/23 03:29:15;;;;;;;15.35;9.13;;;;;;;17.91;100.00;97594.88;5053405;28;20161;-76
2022/07/23 03:31:40;;;;;;;19.00;9.30;;;;;;;17.86;100.00;97592.59;5053476;28;20044;-76
2022/07/23 03:34:06;;;;;;;28.90;9.88;;;;;;;17.78;100.00;97592.44;5069664;28;20034;-76
2022/07/23 03:36:31;;;;;;;17.92;8.38;;;;;;;17.81;100.00;97591.31;5053380;28;20024;-76
2022/07/23 03:38:57;;;;;;;20.48;8.45;;;;;;;17.80;100.00;97597.72;5050621;28;20112;-77
2022/07/23 03:41:22;;;;;;;22.58;8.82;;;;;;;17.79;100.00;97593.28;5053225;28;20112;-77
2022/07/23 03:43:48;;;;;;;18.60;8.52;;;;;;;17.83;100.00;97595.59;5045649;28;20025;-77
2022/07/23 03:46:14;;;;;;;16.92;8.40;;;;;;;17.74;100.00;97588.31;5035703;28;20159;-77
2022/07/23 03:48:39;;;;;;;17.42;8.43;;;;;;;17.76;100.00;97583.59;5069727;28;20106;-77
2022/07/23 03:51:05;;;;;;;13.30;7.60;;;;;;;17.73;100.00;97596.53;5052937;28;20068;-77
2022/07/23 03:53:31;;;;;;;23.42;8.25;;;;;;;17.69;100.00;97603.22;5053187;28;20066;-77
2022/07/23 03:55:56;;;;;;;21.02;8.80;;;;;;;17.71;100.00;97596.69;5053056;28;20029;-76
2022/07/23 03:58:22;;;;;;;12.43;7.68;;;;;;;17.76;100.00;97599.84;5067145;28;20024;-76
2022/07/23 04:00:48;;;;;;;14.15;8.57;;;;;;;17.77;100.00;97595.28;5052907;28;20515;-77
2022/07/23 04:03:13;;;;;;;19.67;8.57;;;;;;;17.85;100.00;97600.84;5051474;28;20090;-80
2022/07/23 04:05:39;;;;;;;14.38;8.57;;;;;;;17.88;100.00;97597.88;5053397;28;20021;-77
2022/07/23 04:08:04;;;;;;;14.25;8.68;;;;;;;18.00;100.00;97595.88;5052903;28;20028;-77
2022/07/23 04:10:30;;;;;;;12.35;8.63;;;;;;;18.03;100.00;97604.59;5059888;28;20028;-76
2022/07/23 04:12:56;;;;;;;16.70;9.02;;;;;;;18.17;100.00;97611.47;5053302;28;20067;-75
2022/07/23 04:15:21;;;;;;;17.58;8.15;;;;;;;18.30;100.00;97603.94;5051994;28;20052;-75
2022/07/23 04:17:47;;;;;;;17.38;7.95;;;;;;;18.42;100.00;97610.94;5053059;28;20028;-77
2022/07/23 04:20:13;;;;;;;18.13;8.40;;;;;;;18.48;100.00;97614.91;5044289;28;20021;-77
2022/07/23 04:22:38;;;;;;;19.70;8.93;;;;;;;18.58;100.00;97604.97;5049435;28;20028;-76
2022/07/23 04:25:04;;;;;;;19.52;8.18;;;;;;;18.74;100.00;97608.78;5066200;28;20029;-78
2022/07/23 04:27:33;;;;;;;16.63;8.75;;;;;;;18.78;98.75;97599.38;5044467;28;20059;-77
2022/07/23 04:29:58;;;;;;;16.48;8.93;;;;;;;18.79;98.66;97613.81;5053050;28;20396;-77
2022/07/23 04:32:24;;;;;;;18.83;9.70;;;;;;;18.93;98.87;97613.34;5069199;28;20020;-76
2022/07/23 04:34:50;;;;;;;21.30;9.32;;;;;;;19.13;97.90;97611.47;5051301;28;20028;-76
2022/07/23 04:37:15;;;;;;;23.67;8.80;;;;;;;19.25;97.67;97607.56;5052529;28;20028;-78
2022/07/23 04:39:41;;;;;;;18.55;8.95;;;;;;;19.80;95.04;97609.38;5069353;28;20032;-76
2022/07/23 04:42:07;;;;;;;20.10;8.60;;;;;;;21.12;85.98;97620.44;5052495;28;20031;-76
2022/07/23 04:44:32;;;;;;;22.10;10.30;;;;;;;21.58;81.23;97609.19;5045365;28;20555;-77
2022/07/23 04:46:58;;;;;;;36.08;11.82;;;;;;;21.23;82.02;97600.25;5052545;28;20028;-77
2022/07/23 04:49:23;;;;;;;23.65;11.85;;;;;;;20.97;83.65;97620.13;5069074;28;20024;-79
2022/07/23 04:51:49;;;;;;;23.85;11.57;;;;;;;20.69;84.46;97612.22;5047075;28;20108;-78
2022/07/23 04:54:14;;;;;;;25.27;13.00;;;;;;;20.65;85.45;97617.13;5049666;28;20426;-77
2022/07/23 04:56:40;;;;;;;20.40;12.45;;;;;;;20.65;85.68;97621.69;5069580;28;20020;-77
2022/07/23 04:59:06;;;;;;;25.35;11.93;;;;;;;20.64;86.27;97626.28;5077041;28;20025;-77
2022/07/23 05:01:31;;;;;;;26.20;11.15;;;;;;;20.64;85.33;97629.00;5059257;28;20479;-77
2022/07/23 05:03:57;;;;;;;23.98;11.90;;;;;;;20.63;85.68;97624.59;5040510;28;20473;-77
2022/07/23 05:06:22;;;;;;;29.02;11.65;;;;;;;21.29;84.14;97610.50;5054021;28;20056;-77
2022/07/23 05:08:48;;;;;;;20.25;11.95;;;;;;;22.64;77.46;97615.88;5068896;28;20484;-77
2022/07/23 05:11:14;;;;;;;23.60;11.60;;;;;;;23.55;71.23;97605.66;5069128;28;20040;-76
2022/07/23 05:13:40;;;;;;;23.00;11.27;;;;;;;23.35;71.68;97609.78;5063201;28;20029;-76
2022/07/23 05:16:05;;;;;;;26.70;11.43;;;;;;;23.19;72.11;97622.38;5065864;28;20035;-77
2022/07/23 05:18:31;;;;;;;18.65;9.80;;;;;;;22.85;73.44;97623.59;5035683;28;20036;-77
2022/07/23 05:20:57;;;;;;;24.48;10.82;;;;;;;22.65;74.70;97623.06;5040756;28;20025;-79
2022/07/23 05:23:22;;;;;;;33.35;11.38;;;;;;;22.98;74.79;97632.16;5067549;28;20025;-76
2022/07/23 05:25:48;;;;;;;27.70;10.85;;;;;;;23.70;72.01;97625.75;5069277;28;20108;-77
2022/07/23 05:28:13;;;;;;;23.83;11.05;;;;;;;25.46;65.01;97615.81;5070406;28;20028;-82
2022/07/23 05:30:39;;;;;;;21.83;10.48;;;;;;;27.13;58.46;97602.00;5054607;28;20033;-76
2022/07/23 05:33:04;;;;;;;20.25;9.50;;;;;;;28.81;53.02;97597.97;5052421;28;20580;-77
2022/07/23 05:35:30;;;;;;;16.65;9.45;;;;;;;29.98;48.72;97588.06;5070309;28;20028;-78
2022/07/23 05:37:56;;;;;;;23.00;9.50;;;;;;;30.76;46.61;97599.88;5070177;28;20073;-79
2022/07/23 05:40:21;;;;;;;18.50;8.50;;;;;;;31.58;44.22;97588.69;5067608;28;20029;-78
2022/07/23 05:42:47;;;;;;;16.55;8.60;;;;;;;32.30;42.70;97593.53;5059876;28;20112;-79
2022/07/23 05:45:12;;;;;;;20.33;9.52;;;;;;;33.01;40.64;97590.03;5071349;28;20016;-78
2022/07/23 05:47:48;;;;;;;17.90;8.85;;;;;;;32.84;40.55;97591.75;5064876;28;20442;-79
2022/07/23 05:50:18;;;;;;;18.02;9.07;;;;;;;34.14;39.14;97591.59;5044879;28;20389;-78
2022/07/23 05:52:44;;;;;;;30.80;8.82;;;;;;;35.03;36.83;97592.06;5069194;28;20090;-79
2022/07/23 05:55:10;;;;;;;15.38;8.57;;;;;;;35.35;35.46;97579.34;5043463;28;20029;-79
2022/07/23 05:57:36;;;;;;;11.80;8.30;;;;;;;35.08;35.91;97587.44;5038132;28;20079;-79
2022/07/23 06:00:04;;;;;;;18.15;8.70;;;;;;;35.46;34.64;97584.00;5067746;28;20141;-77
2022/07/23 06:02:29;;;;;;;19.27;8.32;;;;;;;34.78;36.14;97581.31;5042762;28;20374;-78
2022/07/23 06:04:55;;;;;;;16.10;8.25;;;;;;;35.50;35.02;97587.13;5072070;28;20040;-77
2022/07/23 06:07:21;;;;;;;21.27;8.90;;;;;;;35.37;35.01;97574.38;5052667;28;20488;-78
2022/07/23 06:09:47;;;;;;;28.10;9.05;;;;;;;35.41;35.45;97592.25;5052218;28;20037;-77
2022/07/23 06:12:12;;;;;;;23.00;9.00;;;;;;;34.76;36.36;97589.88;5072070;28;20040;-77
2022/07/23 06:14:38;;;;;;;13.32;8.70;;;;;;;34.94;35.84;97585.22;5054574;28;20070;-76
2022/07/23 06:17:04;;;;;;;26.65;8.00;;;;;;;34.76;36.20;97589.88;5046835;28;20124;-78
2022/07/23 06:19:29;;;;;;;16.55;7.90;;;;;;;35.21;35.41;97577.97;5054687;28;20480;-78
2022/07/23 06:21:55;;;;;;;15.20;8.50;;;;;;;35.70;34.66;97581.91;5067281;28;20540;-78
2022/07/23 06:24:20;;;;;;;18.30;7.82;;;;;;;35.39;35.10;97574.97;5054977;28;20236;-78
2022/07/23 06:26:46;;;;;;;14.13;8.20;;;;;;;36.24;33.75;97571.91;5046125;28;20480;-78
2022/07/23 06:29:12;;;;;;;20.40;7.50;;;;;;;37.03;32.73;97570.44;5043420;28;20044;-78
2022/07/23 06:31:37;;;;;;;11.40;7.00;;;;;;;37.28;32.10;97581.88;5054366;28;20052;-78
2022/07/23 06:34:03;;;;;;;12.07;7.35;;;;;;;37.50;31.67;97573.44;5036673;28;20025;-79
2022/07/23 06:36:28;;;;;;;15.63;7.00;;;;;;;36.80;31.93;97573.47;5046868;28;20485;-78
2022/07/23 06:38:54;;;;;;;12.65;7.25;;;;;;;37.07;31.42;97567.97;5059386;28;20036;-78
2022/07/23 06:41:20;;;;;;;20.17;8.57;;;;;;;37.13;31.66;97570.53;5054174;28;20016;-78
2022/07/23 06:43:45;;;;;;;16.98;9.07;;;;;;;38.70;29.96;97564.16;5054072;28;20043;-77
2022/07/23 06:46:11;;;;;;;22.45;7.88;;;;;;;39.39;28.93;97561.03;5054774;28;20093;-79
2022/07/23 06:48:36;;;;;;;21.58;8.77;;;;;;;38.70;29.75;97547.38;5054318;28;20025;-78
2022/07/23 06:51:03;;;;;;;13.93;8.90;;;;;;;38.46;29.62;97551.78;5062839;28;20025;-77
2022/07/23 06:53:28;;;;;;;15.43;7.30;;;;;;;39.38;28.94;97550.94;5054019;28;20032;-78
2022/07/23 06:55:54;;;;;;;19.38;9.10;;;;;;;40.56;27.51;97546.66;5053872;28;20041;-79
2022/07/23 06:58:20;;;;;;;19.70;9.10;;;;;;;39.12;28.35;97552.88;5053655;28;20503;-79
2022/07/23 07:00:46;;;;;;;14.85;9.57;;;;;;;37.99;30.06;97544.22;5053592;28;20504;-78
2022/07/23 07:03:11;;;;;;;13.45;9.23;;;;;;;39.28;28.96;97542.56;5053916;28;20125;-78
2022/07/23 07:05:39;;;;;;;18.42;9.25;;;;;;;39.26;28.76;97519.56;5053878;28;20558;-78
2022/07/23 07:08:05;;;;;;;16.90;8.50;;;;;;;39.45;28.10;97523.50;5064778;28;20028;-78
2022/07/23 07:10:31;;;;;;;20.40;9.05;;;;;;;39.68;28.09;97537.00;5055055;28;20035;-78
2022/07/23 07:12:56;;;;;;;14.65;8.07;;;;;;;40.53;27.30;97536.00;5060418;28;20111;-77
2022/07/23 07:15:22;;;;;;;15.95;8.25;;;;;;;40.50;26.67;97528.13;5045321;28;20117;-78
2022/07/23 07:17:48;;;;;;;10.52;7.10;;;;;;;41.20;25.44;97525.25;5053502;28;20400;-78
2022/07/23 07:20:13;;;;;;;15.93;7.35;;;;;;;41.89;24.70;97525.03;5053409;28;20024;-78
2022/07/23 07:22:39;;;;;;;14.25;8.13;;;;;;;42.61;24.77;97526.75;5050366;28;20129;-78
2022/07/23 07:25:06;;;;;;;14.98;8.25;;;;;;;42.57;24.23;97520.94;5052895;28;20016;-78
2022/07/23 07:27:32;;;;;;;10.85;7.32;;;;;;;41.13;24.76;97513.53;5046879;28;20058;-78
2022/07/23 07:29:57;;;;;;;17.42;7.85;;;;;;;40.68;25.94;97514.59;5050096;28;20033;-78
2022/07/23 07:32:23;;;;;;;12.27;7.60;;;;;;;41.31;25.42;97521.25;5069961;28;20020;-78
2022/07/23 07:34:49;;;;;;;16.52;7.35;;;;;;;38.88;27.84;97518.97;5061059;28;20031;-77
2022/07/23 07:37:15;;;;;;;10.13;7.20;;;;;;;38.76;28.11;97514.69;5051214;28;20099;-78
2022/07/23 07:39:40;;;;;;;19.33;8.25;;;;;;;38.93;27.89;97513.34;5045084;28;20460;-78
2022/07/23 07:42:06;;;;;;;13.00;7.07;;;;;;;40.02;26.81;97518.41;5047643;28;20025;-78
2022/07/23 07:44:32;;;;;;;20.75;7.28;;;;;;;39.56;26.95;97502.81;5068232;28;20102;-78
2022/07/23 07:46:57;;;;;;;20.60;7.63;;;;;;;39.45;27.70;97496.34;5055784;28;20025;-78
2022/07/23 07:49:23;;;;;;;17.02;6.85;;;;;;;40.34;26.19;97508.81;5069841;28;20020;-78
2022/07/23 07:51:49;;;;;;;13.32;7.50;;;;;;;42.90;23.82;97502.16;5046178;28;20403;-78
2022/07/23 07:54:15;;;;;;;14.75;7.22;;;;;;;43.06;23.83;97498.00;5062905;28;20523;-78
2022/07/23 07:56:41;;;;;;;10.93;6.38;;;;;;;40.89;24.85;97483.31;5046150;28;20103;-78
2022/07/23 07:59:06;;;;;;;14.88;6.75;;;;;;;42.18;24.36;97488.47;5052498;28;20032;-78
2022/07/23 08:01:32;;;;;;;12.27;6.40;;;;;;;42.95;23.35;97490.81;5069859;28;20495;-78
2022/07/23 08:03:57;;;;;;;10.07;6.80;;;;;;;42.29;23.95;97471.16;5052855;28;20085;-78
2022/07/23 08:06:23;;;;;;;12.73;6.05;;;;;;;42.06;24.06;97481.22;5052799;28;20052;-77
2022/07/23 08:08:49;;;;;;;17.48;6.25;;;;;;;43.17;22.97;97485.44;5062903;28;20408;-77
2022/07/23 08:11:14;;;;;;;11.35;7.03;;;;;;;45.04;21.68;97479.03;5052784;28;20024;-78
2022/07/23 08:13:40;;;;;;;10.80;6.22;;;;;;;43.41;22.79;97479.72;5046167;28;20013;-78
2022/07/23 08:16:06;;;;;;;14.25;7.15;;;;;;;41.19;24.94;97487.09;5052676;28;20020;-78
2022/07/23 08:18:32;;;;;;;17.92;7.20;;;;;;;41.30;25.16;97485.88;5045921;28;20067;-78
2022/07/23 08:20:58;;;;;;;19.40;7.07;;;;;;;42.93;24.27;97483.81;5052456;28;20035;-78
2022/07/23 08:23:23;;;;;;;16.08;6.93;;;;;;;43.46;23.27;97487.25;5046017;28;20458;-79
2022/07/23 08:25:49;;;;;;;14.07;7.10;;;;;;;42.67;23.90;97477.72;5052483;28;20103;-78
2022/07/23 08:28:15;;;;;;;12.40;6.22;;;;;;;42.61;23.58;97482.56;5062361;28;20029;-77
2022/07/23 08:30:43;;;;;;;10.00;6.38;;;;;;;43.47;23.14;97486.13;5060688;28;20070;-76
2022/07/23 08:33:15;;;;;;;12.82;6.35;;;;;;;45.02;22.10;97487.00;5052030;28;20496;-79
2022/07/23 08:35:46;;;;;;;10.60;5.70;;;;;;;45.53;21.18;97480.16;5052619;28;20476;-79
2022/07/23 08:38:13;;;;;;;;;;;;;;;43.57;22.76;97481.13;5036210;28;20062;-78
2022/07/23 08:40:41;;;;;;;12.10;5.90;;;;;;;43.38;23.21;97473.88;5049181;28;19935;-77
2022/07/23 08:43:09;;;;;;;15.27;6.60;;;;;;;45.75;21.29;97477.31;5050849;28;20039;-78
2022/07/23 08:45:43;;;;;;;8.35;6.85;;;;;;;46.98;20.72;97473.53;5052417;28;20020;-78
2022/07/23 08:48:20;;;;;;;13.10;6.05;;;;;;;47.78;19.60;97467.16;5067800;28;20035;-78
2022/07/23 08:50:48;;;;;;;10.85;6.15;;;;;;;43.89;22.05;97468.19;5044455;28;20031;-78
2022/07/23 08:53:14;;;;;;;16.98;5.88;;;;;;;44.30;21.79;97446.50;5060644;28;20107;-78
2022/07/23 08:55:44;;;;;;;11.85;6.45;;;;;;;45.37;20.26;97468.38;5050858;28;20107;-78
2022/07/23 08:58:09;;;;;;;11.30;5.82;;;;;;;45.98;19.53;97447.81;5046893;28;20025;-77
2022/07/23 09:00:35;;;;;;;14.98;5.57;;;;;;;46.03;19.37;97447.66;5051690;28;20052;-77
2022/07/23 09:03:00;;;;;;;10.98;5.65;;;;;;;47.14;18.64;97455.66;5045321;28;20157;-78
2022/07/23 09:05:26;;;;;;;22.33;5.60;;;;;;;48.16;17.14;97447.34;5048955;28;20525;-78
2022/07/23 09:08:07;;;;;;;12.88;5.22;;;;;;;48.24;16.73;97435.19;5056014;28;20115;-78
2022/07/23 09:10:54;;;;;;;9.85;5.22;;;;;;;47.45;16.64;97440.50;5055858;28;20028;-78
2022/07/23 09:13:48;;;;;;;10.90;5.03;;;;;;;47.61;15.21;97430.31;5072652;28;20024;-77
2022/07/23 09:16:16;;;;;;;20.13;5.38;;;;;;;48.09;14.46;97424.34;5073090;28;20032;-76
2022/07/23 09:18:49;;;;;;;11.55;4.72;;;;;;;47.86;14.05;97415.22;5055643;28;20032;-78
2022/07/23 09:21:25;;;;;;;14.10;5.65;;;;;;;48.19;13.66;97407.75;5072469;28;20073;-79
2022/07/23 09:23:52;;;;;;;8.75;4.60;;;;;;;47.92;15.57;97416.75;5051469;28;20480;-77
2022/07/23 09:26:41;;;;;;;9.43;4.85;;;;;;;47.87;15.47;97419.78;5072343;28;20081;-78
2022/07/23 09:29:08;;;;;;;8.77;5.05;;;;;;;48.28;14.93;97419.09;5052649;28;20048;-82
2022/07/23 09:31:59;;;;;;;10.63;5.25;;;;;;;49.32;14.35;97426.59;5056852;28;20032;-83
2022/07/23 09:34:27;;;;;;;11.85;4.82;;;;;;;48.84;14.38;97412.09;5052955;28;20037;-87
2022/07/23 09:36:57;;;;;;;11.98;5.07;;;;;;;47.75;14.75;97403.41;5062672;28;20036;-88
2022/07/23 09:39:30;;;;;;;9.95;4.72;;;;;;;46.65;15.34;97393.78;5054283;28;20419;-87
2022/07/23 09:41:57;;;;;;;10.13;4.70;;;;;;;45.57;16.22;97393.47;5069389;28;20024;-86
2022/07/23 09:44:23;;;;;;;11.82;5.15;;;;;;;45.72;16.95;97391.09;5056126;28;20032;-86
2022/07/23 09:46:50;;;;;;;8.85;4.82;;;;;;;47.84;16.00;97406.22;5055347;28;20506;-87
2022/07/23 09:49:23;;;;;;;7.35;5.13;;;;;;;47.91;15.20;97383.00;5061647;28;20041;-86
2022/07/23 09:51:55;;;;;;;8.43;5.18;;;;;;;47.13;15.44;97399.31;5075383;28;20066;-84
2022/07/23 09:54:34;;;;;;;9.13;4.90;;;;;;;45.62;16.56;97388.53;5050413;28;20169;-86
2022/07/23 09:57:15;;;;;;;12.40;4.88;;;;;;;46.87;16.13;97402.16;5062215;28;20066;-84
2022/07/23 09:59:43;;;;;;;11.45;4.93;;;;;;;48.30;15.12;97394.84;5046962;28;20427;-84
2022/07/23 10:02:11;;;;;;;15.85;5.05;;;;;;;48.84;15.28;97397.88;5053777;28;20530;-85
2022/07/23 10:04:38;;;;;;;10.40;5.03;;;;;;;49.92;14.53;97402.38;5038604;28;20040;-85
2022/07/23 10:07:05;;;;;;;12.52;5.28;;;;;;;50.52;13.70;97389.41;5054073;28;20480;-86
2022/07/23 10:09:33;;;;;;;14.40;5.15;;;;;;;49.58;14.20;97388.53;5054442;28;20050;-85
2022/07/23 10:12:06;;;;;;;8.38;4.70;;;;;;;49.39;14.00;97387.06;5063214;28;20059;-85
2022/07/23 10:14:33;;;;;;;14.98;5.20;;;;;;;47.97;15.44;97375.97;5076951;28;20023;-83
2022/07/23 10:17:01;;;;;;;17.55;5.38;;;;;;;48.08;15.03;97349.72;5067533;28;20021;-83
2022/07/23 10:19:27;;;;;;;14.95;5.88;;;;;;;48.87;15.14;97374.44;5071144;28;20550;-85
2022/07/23 10:21:57;;;;;;;8.40;4.93;;;;;;;47.40;15.63;97372.63;5055314;28;20028;-85
2022/07/23 10:24:30;;;;;;;10.88;4.80;;;;;;;47.02;15.30;97361.13;5055063;28;20097;-85
2022/07/23 10:27:31;;;;;;;15.00;4.97;;;;;;;46.96;15.06;97365.31;5055037;28;20036;-85
2022/07/23 10:30:04;;;;;;;;;;;;;;;47.75;14.43;97360.00;5057426;28;20051;-86
2022/07/23 10:32:55;;;;;;;13.45;4.85;;;;;;;48.62;13.51;97356.41;5073617;28;20396;-85
2022/07/23 10:35:54;;;;;;;11.88;4.93;;;;;;;47.29;13.52;97347.44;5068453;28;20067;-85
2022/07/23 10:38:40;;;;;;;13.98;4.55;;;;;;;48.97;13.88;97345.63;5058237;28;20029;-94
2022/07/23 10:41:05;;;;;;;13.57;5.30;;;;;;;48.38;14.64;97350.56;5071295;28;20029;-86
2022/07/23 10:43:31;;;;;;;8.93;4.80;;;;;;;49.30;14.20;97340.81;5070587;28;20019;-85
2022/07/23 10:46:30;;;;;;;13.82;5.28;;;;;;;49.91;13.66;97358.00;5050672;28;20030;-88
2022/07/23 10:49:28;;;;;;;10.13;5.03;;;;;;;49.34;13.60;97349.47;5055300;28;20042;-84
2022/07/23 10:52:30;;;;;;;11.10;5.22;;;;;;;51.07;12.84;97343.91;5066057;28;20043;-85
2022/07/23 10:55:15;;;;;;;9.75;5.00;;;;;;;50.34;13.16;97335.50;5000604;28;20132;-84
2022/07/23 10:57:49;;;;;;;14.75;5.32;;;;;;;50.29;13.56;97329.19;5042945;28;20127;-84
2022/07/23 11:00:23;;;;;;;13.32;4.80;;;;;;;49.56;12.99;97305.53;5048150;28;20091;-84
2022/07/23 11:02:50;;;;;;;14.95;5.00;;;;;;;49.73;13.17;97305.34;5062176;28;20029;-84
2022/07/23 11:05:18;;;;;;;8.23;5.07;;;;;;;49.04;13.94;97320.28;5053953;28;20036;-84
2022/07/23 11:08:03;;;;;;;8.40;5.10;;;;;;;49.96;13.74;97311.41;5053450;28;20515;-84
2022/07/23 11:10:52;;;;;;;10.38;4.72;;;;;;;51.20;12.46;97305.56;5062837;28;20024;-85
2022/07/23 11:13:24;;;;;;;7.93;4.30;;;;;;;51.95;12.15;97311.28;5070768;28;20459;-85
2022/07/23 11:16:02;;;;;;;24.50;5.93;;;;;;;53.10;11.51;97323.03;5070466;28;20278;-85
2022/07/23 11:18:58;;;;;;;12.27;4.82;;;;;;;51.67;12.56;97311.41;5058571;28;20102;-85
2022/07/23 11:21:26;;;;;;;10.63;4.50;;;;;;;51.67;12.22;97307.72;5060872;28;20460;-84
2022/07/23 11:24:06;;;;;;;11.85;5.05;;;;;;;52.03;12.04;97303.78;5062707;28;20511;-85
2022/07/23 11:26:38;;;;;;;20.58;5.25;;;;;;;51.45;12.34;97304.25;5040572;28;20039;-85
2022/07/23 11:29:25;;;;;;;10.63;4.65;;;;;;;48.64;13.14;97285.06;5070434;28;20028;-84